sensor_id;sensor_type;location;lat;lon;timestamp;temperature;humidity
56771;DHT22;42641;59.794;17.616;2022-09-09T00:04:37;9.60;99.90
56771;DHT22;42641;59.794;17.616;2022-09-09T00:13:16;9.80;99.90
56771;DHT22;42641;59.794;17.616;2022-09-09T00:16:00;9.90;99.90
56771;DHT22;42641;59.794;17.616;2022-09-09T00:21:15;10.00;99.90
56771;DHT22;42641;59.794;17.616;2022-09-09T00:23:55;10.00;99.90
56771;DHT22;42641;59.794;17.616;2022-09-09T00:26:35;10.10;99.90
56771;DHT22;42641;59.794;17.616;2022-09-09T00:31:34;10.10;99.90
56771;DHT22;42641;59.794;17.616;2022-09-09T00:36:38;10.20;99.90
56771;DHT22;42641;59.794;17.616;2022-09-09T00:39:05;10.20;99.90
56771;DHT22;42641;59.794;17.616;2022-09-09T00:41:57;10.30;99.90
56771;DHT22;42641;59.794;17.616;2022-09-09T00:44:32;10.30;99.90
56771;DHT22;42641;59.794;17.616;2022-09-09T00:55:40;10.50;99.90
56771;DHT22;42641;59.794;17.616;2022-09-09T00:58:08;10.60;99.90
56771;DHT22;42641;59.794;17.616;2022-09-09T01:00:42;10.60;99.90
56771;DHT22;42641;59.794;17.616;2022-09-09T01:11:22;10.90;99.90
56771;DHT22;42641;59.794;17.616;2022-09-09T01:13:56;10.90;99.90
56771;DHT22;42641;59.794;17.616;2022-09-09T01:16:28;10.90;99.90
56771;DHT22;42641;59.794;17.616;2022-09-09T01:18:56;11.00;99.90
56771;DHT22;42641;59.794;17.616;2022-09-09T01:21:53;11.00;99.90
56771;DHT22;42641;59.794;17.616;2022-09-09T01:24:44;11.10;99.90
56771;DHT22;42641;59.794;17.616;2022-09-09T01:27:19;11.10;99.90
56771;DHT22;42641;59.794;17.616;2022-09-09T01:29:46;11.10;99.90
56771;DHT22;42641;59.794;17.616;2022-09-09T01:32:41;11.20;99.90
56771;DHT22;42641;59.794;17.616;2022-09-09T01:35:18;11.20;99.90
56771;DHT22;42641;59.794;17.616;2022-09-09T01:37:49;11.10;99.90
56771;DHT22;42641;59.794;17.616;2022-09-09T01:40:15;11.10;99.90
56771;DHT22;42641;59.794;17.616;2022-09-09T01:42:42;11.00;99.90
56771;DHT22;42641;59.794;17.616;2022-09-09T01:45:09;10.90;99.90
56771;DHT22;42641;59.794;17.616;2022-09-09T01:47:35;10.90;99.90
56771;DHT22;42641;59.794;17.616;2022-09-09T01:50:12;10.80;99.90
56771;DHT22;42641;59.794;17.616;2022-09-09T01:52:42;10.80;99.90
56771;DHT22;42641;59.794;17.616;2022-09-09T01:55:12;10.70;99.90
56771;DHT22;42641;59.794;17.616;2022-09-09T01:57:55;10.60;99.90
56771;DHT22;42641;59.794;17.616;2022-09-09T02:00:22;10.50;99.90
56771;DHT22;42641;59.794;17.616;2022-09-09T02:03:44;10.40;99.90
56771;DHT22;42641;59.794;17.616;2022-09-09T02:08:36;10.40;99.90
56771;DHT22;42641;59.794;17.616;2022-09-09T02:11:14;10.50;99.90
56771;DHT22;42641;59.794;17.616;2022-09-09T02:14:08;10.50;99.90
56771;DHT22;42641;59.794;17.616;2022-09-09T02:16:42;10.50;99.90
56771;DHT22;42641;59.794;17.616;2022-09-09T02:19:21;10.60;99.90
56771;DHT22;42641;59.794;17.616;2022-09-09T02:22:05;10.60;99.90
56771;DHT22;42641;59.794;17.616;2022-09-09T02:24:36;10.70;99.90
56771;DHT22;42641;59.794;17.616;2022-09-09T02:27:13;10.60;99.90
56771;DHT22;42641;59.794;17.616;2022-09-09T02:29:43;10.70;99.90
56771;DHT22;42641;59.794;17.616;2022-09-09T02:32:17;10.70;99.90
56771;DHT22;42641;59.794;17.616;2022-09-09T02:34:55;10.80;99.90
56771;DHT22;42641;59.794;17.616;2022-09-09T02:37:26;10.80;99.90
56771;DHT22;42641;59.794;17.616;2022-09-09T02:39:55;10.90;99.90
56771;DHT22;42641;59.794;17.616;2022-09-09T02:42:22;10.80;99.90
56771;DHT22;42641;59.794;17.616;2022-09-09T02:44:52;10.80;99.90
56771;DHT22;42641;59.794;17.616;2022-09-09T02:47:24;10.90;99.90
56771;DHT22;42641;59.794;17.616;2022-09-09T02:50:13;10.90;99.90
56771;DHT22;42641;59.794;17.616;2022-09-09T02:58:26;10.90;99.90
56771;DHT22;42641;59.794;17.616;2022-09-09T03:00:57;10.90;99.90
56771;DHT22;42641;59.794;17.616;2022-09-09T03:03:25;10.90;99.90
56771;DHT22;42641;59.794;17.616;2022-09-09T03:05:52;10.90;99.90
56771;DHT22;42641;59.794;17.616;2022-09-09T03:08:19;10.90;99.90
56771;DHT22;42641;59.794;17.616;2022-09-09T03:10:45;10.90;99.90
56771;DHT22;42641;59.794;17.616;2022-09-09T03:13:14;10.90;99.90
56771;DHT22;42641;59.794;17.616;2022-09-09T03:15:41;11.00;99.90
56771;DHT22;42641;59.794;17.616;2022-09-09T03:18:12;11.00;99.90
56771;DHT22;42641;59.794;17.616;2022-09-09T03:20:39;11.00;99.90
56771;DHT22;42641;59.794;17.616;2022-09-09T03:23:08;11.00;99.90
56771;DHT22;42641;59.794;17.616;2022-09-09T03:25:35;11.00;99.90
56771;DHT22;42641;59.794;17.616;2022-09-09T03:28:01;11.00;99.90
56771;DHT22;42641;59.794;17.616;2022-09-09T03:30:28;11.00;99.90
56771;DHT22;42641;59.794;17.616;2022-09-09T03:32:56;10.90;99.90
56771;DHT22;42641;59.794;17.616;2022-09-09T03:35:26;10.90;99.90
56771;DHT22;42641;59.794;17.616;2022-09-09T03:37:52;10.90;99.90
56771;DHT22;42641;59.794;17.616;2022-09-09T03:40:21;10.90;99.90
56771;DHT22;42641;59.794;17.616;2022-09-09T03:42:48;10.90;99.90
56771;DHT22;42641;59.794;17.616;2022-09-09T03:45:16;10.90;99.90
56771;DHT22;42641;59.794;17.616;2022-09-09T03:47:43;10.90;99.90
56771;DHT22;42641;59.794;17.616;2022-09-09T03:50:09;10.90;99.90
56771;DHT22;42641;59.794;17.616;2022-09-09T03:52:42;10.90;99.90
56771;DHT22;42641;59.794;17.616;2022-09-09T03:55:15;10.80;99.90
56771;DHT22;42641;59.794;17.616;2022-09-09T03:57:42;10.80;99.90
56771;DHT22;42641;59.794;17.616;2022-09-09T04:00:10;10.90;99.90
56771;DHT22;42641;59.794;17.616;2022-09-09T04:02:51;10.90;99.90
56771;DHT22;42641;59.794;17.616;2022-09-09T04:05:20;10.90;99.90
56771;DHT22;42641;59.794;17.616;2022-09-09T04:07:48;10.90;99.90
56771;DHT22;42641;59.794;17.616;2022-09-09T04:10:14;10.80;99.90
56771;DHT22;42641;59.794;17.616;2022-09-09T04:12:42;10.90;99.90
56771;DHT22;42641;59.794;17.616;2022-09-09T04:15:09;10.80;99.90
56771;DHT22;42641;59.794;17.616;2022-09-09T04:17:38;10.90;99.90
56771;DHT22;42641;59.794;17.616;2022-09-09T04:20:05;10.90;99.90
56771;DHT22;42641;59.794;17.616;2022-09-09T04:22:32;11.00;99.90
56771;DHT22;42641;59.794;17.616;2022-09-09T04:25:00;11.00;99.90
56771;DHT22;42641;59.794;17.616;2022-09-09T04:27:27;11.00;99.90
56771;DHT22;42641;59.794;17.616;2022-09-09T04:29:55;11.00;99.90
56771;DHT22;42641;59.794;17.616;2022-09-09T04:32:25;11.10;99.90
56771;DHT22;42641;59.794;17.616;2022-09-09T04:34:53;11.10;99.90
56771;DHT22;42641;59.794;17.616;2022-09-09T04:37:19;11.10;99.90
56771;DHT22;42641;59.794;17.616;2022-09-09T04:39:46;11.10;99.90
56771;DHT22;42641;59.794;17.616;2022-09-09T04:42:12;11.10;99.90
56771;DHT22;42641;59.794;17.616;2022-09-09T04:44:39;11.10;99.90
56771;DHT22;42641;59.794;17.616;2022-09-09T04:47:07;11.10;99.90
56771;DHT22;42641;59.794;17.616;2022-09-09T04:49:33;11.10;99.90
56771;DHT22;42641;59.794;17.616;2022-09-09T04:52:01;11.10;99.90
56771;DHT22;42641;59.794;17.616;2022-09-09T04:54:27;11.00;99.90
56771;DHT22;42641;59.794;17.616;2022-09-09T04:56:54;11.00;99.90
56771;DHT22;42641;59.794;17.616;2022-09-09T04:59:21;11.10;99.90
56771;DHT22;42641;59.794;17.616;2022-09-09T05:01:52;11.10;99.90
56771;DHT22;42641;59.794;17.616;2022-09-09T05:04:21;11.10;99.90
56771;DHT22;42641;59.794;17.616;2022-09-09T05:06:47;11.20;99.90
56771;DHT22;42641;59.794;17.616;2022-09-09T05:09:14;11.20;99.90
56771;DHT22;42641;59.794;17.616;2022-09-09T05:11:41;11.30;99.90
56771;DHT22;42641;59.794;17.616;2022-09-09T05:14:14;11.30;99.90
56771;DHT22;42641;59.794;17.616;2022-09-09T05:16:41;11.30;99.90
56771;DHT22;42641;59.794;17.616;2022-09-09T05:19:09;11.40;99.90
56771;DHT22;42641;59.794;17.616;2022-09-09T05:21:43;11.40;99.90
56771;DHT22;42641;59.794;17.616;2022-09-09T05:24:10;11.40;99.90
56771;DHT22;42641;59.794;17.616;2022-09-09T05:26:37;11.50;99.90
56771;DHT22;42641;59.794;17.616;2022-09-09T05:29:03;11.50;99.90
56771;DHT22;42641;59.794;17.616;2022-09-09T05:31:31;11.50;99.90
56771;DHT22;42641;59.794;17.616;2022-09-09T05:33:59;11.60;99.90
56771;DHT22;42641;59.794;17.616;2022-09-09T05:36:26;11.70;99.90
56771;DHT22;42641;59.794;17.616;2022-09-09T05:38:55;11.70;99.90
56771;DHT22;42641;59.794;17.616;2022-09-09T05:41:23;11.80;99.90
56771;DHT22;42641;59.794;17.616;2022-09-09T05:43:51;11.90;99.90
56771;DHT22;42641;59.794;17.616;2022-09-09T05:46:20;12.00;99.90
56771;DHT22;42641;59.794;17.616;2022-09-09T05:48:49;12.00;99.90
56771;DHT22;42641;59.794;17.616;2022-09-09T05:51:20;12.10;99.90
56771;DHT22;42641;59.794;17.616;2022-09-09T05:53:48;12.10;99.90
56771;DHT22;42641;59.794;17.616;2022-09-09T05:56:20;12.20;99.90
56771;DHT22;42641;59.794;17.616;2022-09-09T05:58:49;12.20;99.90
56771;DHT22;42641;59.794;17.616;2022-09-09T06:01:24;12.30;99.90
56771;DHT22;42641;59.794;17.616;2022-09-09T06:03:51;12.30;99.90
56771;DHT22;42641;59.794;17.616;2022-09-09T06:06:24;12.30;99.90
56771;DHT22;42641;59.794;17.616;2022-09-09T06:08:55;12.30;99.90
56771;DHT22;42641;59.794;17.616;2022-09-09T06:11:28;12.40;99.90
56771;DHT22;42641;59.794;17.616;2022-09-09T06:14:00;12.40;99.90
56771;DHT22;42641;59.794;17.616;2022-09-09T06:16:28;12.40;99.90
56771;DHT22;42641;59.794;17.616;2022-09-09T06:18:56;12.50;99.90
56771;DHT22;42641;59.794;17.616;2022-09-09T06:23:52;12.60;99.90
56771;DHT22;42641;59.794;17.616;2022-09-09T06:26:30;12.60;99.90
56771;DHT22;42641;59.794;17.616;2022-09-09T06:28:58;12.60;99.90
56771;DHT22;42641;59.794;17.616;2022-09-09T06:31:26;12.60;99.90
56771;DHT22;42641;59.794;17.616;2022-09-09T06:33:58;12.60;99.90
56771;DHT22;42641;59.794;17.616;2022-09-09T06:38:53;12.70;99.90
56771;DHT22;42641;59.794;17.616;2022-09-09T06:41:20;12.70;99.90
56771;DHT22;42641;59.794;17.616;2022-09-09T06:43:47;12.70;99.90
56771;DHT22;42641;59.794;17.616;2022-09-09T06:46:19;12.70;99.90
56771;DHT22;42641;59.794;17.616;2022-09-09T06:48:46;12.70;99.90
56771;DHT22;42641;59.794;17.616;2022-09-09T06:51:20;12.70;99.90
56771;DHT22;42641;59.794;17.616;2022-09-09T06:53:51;12.70;99.90
56771;DHT22;42641;59.794;17.616;2022-09-09T06:56:22;12.70;99.90
56771;DHT22;42641;59.794;17.616;2022-09-09T06:58:52;12.80;99.90
56771;DHT22;42641;59.794;17.616;2022-09-09T07:01:29;12.80;99.90
56771;DHT22;42641;59.794;17.616;2022-09-09T07:03:59;12.90;99.90
56771;DHT22;42641;59.794;17.616;2022-09-09T07:06:29;13.00;99.90
56771;DHT22;42641;59.794;17.616;2022-09-09T07:08:59;13.10;99.90
56771;DHT22;42641;59.794;17.616;2022-09-09T07:11:30;13.20;99.90
56771;DHT22;42641;59.794;17.616;2022-09-09T07:13:59;13.40;99.90
56771;DHT22;42641;59.794;17.616;2022-09-09T07:16:26;13.50;99.90
56771;DHT22;42641;59.794;17.616;2022-09-09T07:18:55;13.70;99.90
56771;DHT22;42641;59.794;17.616;2022-09-09T07:21:26;13.80;99.90
56771;DHT22;42641;59.794;17.616;2022-09-09T07:23:54;14.00;99.90
56771;DHT22;42641;59.794;17.616;2022-09-09T07:26:22;14.20;99.90
56771;DHT22;42641;59.794;17.616;2022-09-09T07:28:51;14.50;99.90
56771;DHT22;42641;59.794;17.616;2022-09-09T07:31:23;14.70;99.90
56771;DHT22;42641;59.794;17.616;2022-09-09T07:33:50;14.90;99.90
56771;DHT22;42641;59.794;17.616;2022-09-09T07:36:18;15.10;99.90
56771;DHT22;42641;59.794;17.616;2022-09-09T07:38:50;15.40;99.90
56771;DHT22;42641;59.794;17.616;2022-09-09T07:41:29;15.70;99.90
56771;DHT22;42641;59.794;17.616;2022-09-09T07:43:56;15.80;99.90
56771;DHT22;42641;59.794;17.616;2022-09-09T07:46:25;15.80;99.90
56771;DHT22;42641;59.794;17.616;2022-09-09T07:48:54;15.90;99.90
56771;DHT22;42641;59.794;17.616;2022-09-09T07:51:31;15.90;99.90
56771;DHT22;42641;59.794;17.616;2022-09-09T07:54:01;16.10;99.90
56771;DHT22;42641;59.794;17.616;2022-09-09T07:56:30;16.30;99.90
56771;DHT22;42641;59.794;17.616;2022-09-09T07:58:58;16.50;99.90
56771;DHT22;42641;59.794;17.616;2022-09-09T08:01:28;16.50;99.90
56771;DHT22;42641;59.794;17.616;2022-09-09T08:03:57;16.50;99.90
56771;DHT22;42641;59.794;17.616;2022-09-09T08:06:31;16.50;99.90
56771;DHT22;42641;59.794;17.616;2022-09-09T08:08:59;16.60;99.90
56771;DHT22;42641;59.794;17.616;2022-09-09T08:11:27;16.80;99.90
56771;DHT22;42641;59.794;17.616;2022-09-09T08:13:55;16.80;99.90
56771;DHT22;42641;59.794;17.616;2022-09-09T08:16:24;16.90;99.90
56771;DHT22;42641;59.794;17.616;2022-09-09T08:18:52;16.90;99.90
56771;DHT22;42641;59.794;17.616;2022-09-09T08:21:25;17.10;99.90
56771;DHT22;42641;59.794;17.616;2022-09-09T08:23:56;17.20;99.90
56771;DHT22;42641;59.794;17.616;2022-09-09T08:28:52;17.10;99.90
56771;DHT22;42641;59.794;17.616;2022-09-09T08:31:24;17.00;99.90
56771;DHT22;42641;59.794;17.616;2022-09-09T08:33:51;16.90;99.90
56771;DHT22;42641;59.794;17.616;2022-09-09T08:36:20;17.00;99.90
56771;DHT22;42641;59.794;17.616;2022-09-09T08:38:49;17.10;99.90
56771;DHT22;42641;59.794;17.616;2022-09-09T08:44:14;17.00;99.90
56771;DHT22;42641;59.794;17.616;2022-09-09T08:54:50;16.80;99.90
56771;DHT22;42641;59.794;17.616;2022-09-09T08:57:24;16.70;99.90
56771;DHT22;42641;59.794;17.616;2022-09-09T08:59:56;16.70;99.90
56771;DHT22;42641;59.794;17.616;2022-09-09T09:03:06;16.60;99.90
56771;DHT22;42641;59.794;17.616;2022-09-09T09:05:47;16.60;99.90
56771;DHT22;42641;59.794;17.616;2022-09-09T09:10:55;17.50;99.90
56771;DHT22;42641;59.794;17.616;2022-09-09T09:16:38;17.40;99.90
56771;DHT22;42641;59.794;17.616;2022-09-09T09:19:13;17.10;99.90
56771;DHT22;42641;59.794;17.616;2022-09-09T09:21:44;17.00;99.90
56771;DHT22;42641;59.794;17.616;2022-09-09T09:24:23;17.10;99.90
56771;DHT22;42641;59.794;17.616;2022-09-09T09:26:51;17.10;99.90
56771;DHT22;42641;59.794;17.616;2022-09-09T09:29:21;16.90;99.90
56771;DHT22;42641;59.794;17.616;2022-09-09T09:31:53;16.90;99.90
56771;DHT22;42641;59.794;17.616;2022-09-09T09:34:22;16.90;99.90
56771;DHT22;42641;59.794;17.616;2022-09-09T09:36:59;16.90;99.90
56771;DHT22;42641;59.794;17.616;2022-09-09T09:39:33;17.00;99.90
56771;DHT22;42641;59.794;17.616;2022-09-09T09:42:10;17.20;99.90
56771;DHT22;42641;59.794;17.616;2022-09-09T09:44:41;17.30;99.90
56771;DHT22;42641;59.794;17.616;2022-09-09T09:47:16;17.50;99.90
56771;DHT22;42641;59.794;17.616;2022-09-09T09:52:23;17.90;99.10
56771;DHT22;42641;59.794;17.616;2022-09-09T09:54:51;18.00;99.50
56771;DHT22;42641;59.794;17.616;2022-09-09T09:57:25;17.90;99.30
56771;DHT22;42641;59.794;17.616;2022-09-09T10:00:15;18.10;99.60
56771;DHT22;42641;59.794;17.616;2022-09-09T10:02:46;18.10;99.10
56771;DHT22;42641;59.794;17.616;2022-09-09T10:05:23;18.00;99.90
56771;DHT22;42641;59.794;17.616;2022-09-09T10:08:12;18.00;99.90
56771;DHT22;42641;59.794;17.616;2022-09-09T10:16:40;17.70;98.90
56771;DHT22;42641;59.794;17.616;2022-09-09T10:19:28;17.80;99.30
56771;DHT22;42641;59.794;17.616;2022-09-09T10:22:02;18.00;97.90
56771;DHT22;42641;59.794;17.616;2022-09-09T10:24:54;17.90;97.60
56771;DHT22;42641;59.794;17.616;2022-09-09T10:30:16;17.60;97.30
56771;DHT22;42641;59.794;17.616;2022-09-09T10:38:13;17.50;98.80
56771;DHT22;42641;59.794;17.616;2022-09-09T10:41:13;17.90;98.30
56771;DHT22;42641;59.794;17.616;2022-09-09T10:43:59;18.60;96.60
56771;DHT22;42641;59.794;17.616;2022-09-09T10:51:40;19.40;96.60
56771;DHT22;42641;59.794;17.616;2022-09-09T10:57:06;19.70;96.30
56771;DHT22;42641;59.794;17.616;2022-09-09T10:59:40;19.50;95.80
56771;DHT22;42641;59.794;17.616;2022-09-09T11:02:28;19.40;95.50
56771;DHT22;42641;59.794;17.616;2022-09-09T11:05:03;19.30;96.20
56771;DHT22;42641;59.794;17.616;2022-09-09T11:07:37;19.30;96.10
56771;DHT22;42641;59.794;17.616;2022-09-09T11:10:13;19.10;96.20
56771;DHT22;42641;59.794;17.616;2022-09-09T11:12:43;18.90;96.60
56771;DHT22;42641;59.794;17.616;2022-09-09T11:15:22;18.70;96.10
56771;DHT22;42641;59.794;17.616;2022-09-09T11:17:53;18.60;96.60
56771;DHT22;42641;59.794;17.616;2022-09-09T11:20:22;19.60;96.10
56771;DHT22;42641;59.794;17.616;2022-09-09T11:22:56;21.10;94.70
56771;DHT22;42641;59.794;17.616;2022-09-09T11:26:04;22.60;91.90
56771;DHT22;42641;59.794;17.616;2022-09-09T11:28:36;22.90;90.80
56771;DHT22;42641;59.794;17.616;2022-09-09T11:42:25;21.60;88.80
56771;DHT22;42641;59.794;17.616;2022-09-09T11:44:52;21.90;90.40
56771;DHT22;42641;59.794;17.616;2022-09-09T11:47:31;21.70;89.70
56771;DHT22;42641;59.794;17.616;2022-09-09T11:50:34;22.10;90.00
56771;DHT22;42641;59.794;17.616;2022-09-09T11:53:20;23.40;88.40
56771;DHT22;42641;59.794;17.616;2022-09-09T11:56:01;24.30;84.70
56771;DHT22;42641;59.794;17.616;2022-09-09T11:58:34;24.80;83.90
56771;DHT22;42641;59.794;17.616;2022-09-09T12:01:25;24.60;80.20
56771;DHT22;42641;59.794;17.616;2022-09-09T12:06:48;22.60;88.10
56771;DHT22;42641;59.794;17.616;2022-09-09T12:12:20;21.20;86.50
56771;DHT22;42641;59.794;17.616;2022-09-09T12:17:48;20.30;88.40
56771;DHT22;42641;59.794;17.616;2022-09-09T12:20:17;21.40;87.70
56771;DHT22;42641;59.794;17.616;2022-09-09T12:22:51;22.60;84.30
56771;DHT22;42641;59.794;17.616;2022-09-09T12:28:02;23.10;80.70
56771;DHT22;42641;59.794;17.616;2022-09-09T12:33:23;22.30;82.40
56771;DHT22;42641;59.794;17.616;2022-09-09T12:35:55;22.90;81.20
56771;DHT22;42641;59.794;17.616;2022-09-09T12:38:39;23.50;80.60
56771;DHT22;42641;59.794;17.616;2022-09-09T12:41:15;24.00;77.70
56771;DHT22;42641;59.794;17.616;2022-09-09T12:43:45;24.10;77.70
56771;DHT22;42641;59.794;17.616;2022-09-09T12:46:43;24.20;75.50
56771;DHT22;42641;59.794;17.616;2022-09-09T12:49:28;24.60;76.30
56771;DHT22;42641;59.794;17.616;2022-09-09T12:51:55;24.10;74.80
56771;DHT22;42641;59.794;17.616;2022-09-09T12:54:23;23.60;77.80
56771;DHT22;42641;59.794;17.616;2022-09-09T12:56:50;23.20;77.50
56771;DHT22;42641;59.794;17.616;2022-09-09T12:59:34;22.60;80.50
56771;DHT22;42641;59.794;17.616;2022-09-09T13:02:01;22.30;81.20
56771;DHT22;42641;59.794;17.616;2022-09-09T13:04:27;21.70;80.40
56771;DHT22;42641;59.794;17.616;2022-09-09T13:06:54;21.50;82.20
56771;DHT22;42641;59.794;17.616;2022-09-09T13:09:31;22.10;80.40
56771;DHT22;42641;59.794;17.616;2022-09-09T13:11:58;22.80;79.40
56771;DHT22;42641;59.794;17.616;2022-09-09T13:14:36;23.50;77.50
56771;DHT22;42641;59.794;17.616;2022-09-09T13:17:05;23.80;76.60
56771;DHT22;42641;59.794;17.616;2022-09-09T13:19:35;24.10;77.50
56771;DHT22;42641;59.794;17.616;2022-09-09T13:22:35;24.60;75.20
56771;DHT22;42641;59.794;17.616;2022-09-09T13:25:18;24.40;74.90
56771;DHT22;42641;59.794;17.616;2022-09-09T13:30:36;24.00;72.80
56771;DHT22;42641;59.794;17.616;2022-09-09T13:35:45;22.90;74.50
56771;DHT22;42641;59.794;17.616;2022-09-09T13:38:16;22.40;76.00
56771;DHT22;42641;59.794;17.616;2022-09-09T13:40:57;22.00;79.80
56771;DHT22;42641;59.794;17.616;2022-09-09T13:43:26;21.40;79.30
56771;DHT22;42641;59.794;17.616;2022-09-09T13:45:54;20.90;81.90
56771;DHT22;42641;59.794;17.616;2022-09-09T13:48:22;20.50;83.70
56771;DHT22;42641;59.794;17.616;2022-09-09T13:51:03;20.10;84.70
56771;DHT22;42641;59.794;17.616;2022-09-09T13:53:32;20.10;87.20
56771;DHT22;42641;59.794;17.616;2022-09-09T13:55:59;20.10;84.00
56771;DHT22;42641;59.794;17.616;2022-09-09T13:58:25;19.80;83.70
56771;DHT22;42641;59.794;17.616;2022-09-09T14:00:53;19.40;85.00
56771;DHT22;42641;59.794;17.616;2022-09-09T14:03:19;19.20;86.90
56771;DHT22;42641;59.794;17.616;2022-09-09T14:05:46;19.30;87.50
56771;DHT22;42641;59.794;17.616;2022-09-09T14:08:20;19.20;87.10
56771;DHT22;42641;59.794;17.616;2022-09-09T14:10:47;19.10;86.00
56771;DHT22;42641;59.794;17.616;2022-09-09T14:13:14;18.90;86.40
56771;DHT22;42641;59.794;17.616;2022-09-09T14:15:41;18.90;88.90
56771;DHT22;42641;59.794;17.616;2022-09-09T14:18:11;18.90;88.20
56771;DHT22;42641;59.794;17.616;2022-09-09T14:20:38;18.80;90.00
56771;DHT22;42641;59.794;17.616;2022-09-09T14:23:04;18.80;90.00
56771;DHT22;42641;59.794;17.616;2022-09-09T14:25:31;19.40;90.00
56771;DHT22;42641;59.794;17.616;2022-09-09T14:27:57;19.80;88.80
56771;DHT22;42641;59.794;17.616;2022-09-09T14:30:23;19.70;87.90
56771;DHT22;42641;59.794;17.616;2022-09-09T14:32:50;19.40;89.10
56771;DHT22;42641;59.794;17.616;2022-09-09T14:35:16;19.00;90.00
56771;DHT22;42641;59.794;17.616;2022-09-09T14:37:44;18.70;88.50
56771;DHT22;42641;59.794;17.616;2022-09-09T14:40:10;18.40;90.00
56771;DHT22;42641;59.794;17.616;2022-09-09T14:42:37;18.20;90.40
56771;DHT22;42641;59.794;17.616;2022-09-09T14:45:03;18.00;91.30
56771;DHT22;42641;59.794;17.616;2022-09-09T14:47:30;17.90;91.50
56771;DHT22;42641;59.794;17.616;2022-09-09T14:49:57;17.80;91.40
56771;DHT22;42641;59.794;17.616;2022-09-09T14:52:23;17.70;91.80
56771;DHT22;42641;59.794;17.616;2022-09-09T14:54:49;17.50;91.70
56771;DHT22;42641;59.794;17.616;2022-09-09T14:57:15;17.50;92.30
56771;DHT22;42641;59.794;17.616;2022-09-09T14:59:42;17.40;92.00
56771;DHT22;42641;59.794;17.616;2022-09-09T15:02:09;17.40;92.50
56771;DHT22;42641;59.794;17.616;2022-09-09T15:04:35;17.40;92.10
56771;DHT22;42641;59.794;17.616;2022-09-09T15:07:01;17.30;91.90
56771;DHT22;42641;59.794;17.616;2022-09-09T15:09:28;17.30;92.60
56771;DHT22;42641;59.794;17.616;2022-09-09T15:11:55;17.30;93.20
56771;DHT22;42641;59.794;17.616;2022-09-09T15:14:21;17.30;92.50
56771;DHT22;42641;59.794;17.616;2022-09-09T15:16:47;17.20;93.60
56771;DHT22;42641;59.794;17.616;2022-09-09T15:19:14;17.10;93.10
56771;DHT22;42641;59.794;17.616;2022-09-09T15:21:40;17.00;93.20
56771;DHT22;42641;59.794;17.616;2022-09-09T15:24:06;16.80;93.40
56771;DHT22;42641;59.794;17.616;2022-09-09T15:26:34;16.70;93.70
56771;DHT22;42641;59.794;17.616;2022-09-09T15:29:04;16.70;94.10
56771;DHT22;42641;59.794;17.616;2022-09-09T15:31:31;16.60;93.80
56771;DHT22;42641;59.794;17.616;2022-09-09T15:34:00;16.40;94.30
56771;DHT22;42641;59.794;17.616;2022-09-09T15:36:38;16.30;95.00
56771;DHT22;42641;59.794;17.616;2022-09-09T15:39:08;16.30;95.30
56771;DHT22;42641;59.794;17.616;2022-09-09T15:41:35;16.20;95.00
56771;DHT22;42641;59.794;17.616;2022-09-09T15:44:02;16.10;94.80
56771;DHT22;42641;59.794;17.616;2022-09-09T15:46:33;16.00;94.50
56771;DHT22;42641;59.794;17.616;2022-09-09T15:49:18;16.00;94.70
56771;DHT22;42641;59.794;17.616;2022-09-09T15:51:46;16.00;95.10
56771;DHT22;42641;59.794;17.616;2022-09-09T15:54:18;16.00;94.80
56771;DHT22;42641;59.794;17.616;2022-09-09T15:56:46;16.00;94.90
56771;DHT22;42641;59.794;17.616;2022-09-09T15:59:14;16.00;95.30
56771;DHT22;42641;59.794;17.616;2022-09-09T16:01:41;16.10;95.50
56771;DHT22;42641;59.794;17.616;2022-09-09T16:04:08;16.00;95.70
56771;DHT22;42641;59.794;17.616;2022-09-09T16:06:34;15.90;95.50
56771;DHT22;42641;59.794;17.616;2022-09-09T16:09:03;15.80;96.00
56771;DHT22;42641;59.794;17.616;2022-09-09T16:11:33;15.80;96.40
56771;DHT22;42641;59.794;17.616;2022-09-09T16:14:01;15.70;96.50
56771;DHT22;42641;59.794;17.616;2022-09-09T16:16:29;15.60;96.30
56771;DHT22;42641;59.794;17.616;2022-09-09T16:19:02;15.60;96.80
56771;DHT22;42641;59.794;17.616;2022-09-09T16:21:31;15.50;96.90
56771;DHT22;42641;59.794;17.616;2022-09-09T16:23:59;15.50;97.20
56771;DHT22;42641;59.794;17.616;2022-09-09T16:26:27;15.30;96.90
56771;DHT22;42641;59.794;17.616;2022-09-09T16:28:53;15.30;97.10
56771;DHT22;42641;59.794;17.616;2022-09-09T16:31:26;15.20;97.70
56771;DHT22;42641;59.794;17.616;2022-09-09T16:33:54;15.20;97.80
56771;DHT22;42641;59.794;17.616;2022-09-09T16:36:28;15.10;97.80
56771;DHT22;42641;59.794;17.616;2022-09-09T16:38:58;15.10;97.70
56771;DHT22;42641;59.794;17.616;2022-09-09T16:41:26;15.10;97.70
56771;DHT22;42641;59.794;17.616;2022-09-09T16:43:55;15.10;97.70
56771;DHT22;42641;59.794;17.616;2022-09-09T16:46:22;15.00;97.80
56771;DHT22;42641;59.794;17.616;2022-09-09T16:48:50;14.90;98.20
56771;DHT22;42641;59.794;17.616;2022-09-09T16:51:26;14.90;98.30
56771;DHT22;42641;59.794;17.616;2022-09-09T16:53:54;14.80;98.30
56771;DHT22;42641;59.794;17.616;2022-09-09T16:56:26;14.70;98.70
56771;DHT22;42641;59.794;17.616;2022-09-09T16:58:57;14.70;98.70
56771;DHT22;42641;59.794;17.616;2022-09-09T17:01:26;14.60;99.00
56771;DHT22;42641;59.794;17.616;2022-09-09T17:03:59;14.50;99.10
56771;DHT22;42641;59.794;17.616;2022-09-09T17:06:28;14.50;99.20
56771;DHT22;42641;59.794;17.616;2022-09-09T17:08:59;14.40;99.30
56771;DHT22;42641;59.794;17.616;2022-09-09T17:11:28;14.30;99.40
56771;DHT22;42641;59.794;17.616;2022-09-09T17:13:56;14.30;99.50
56771;DHT22;42641;59.794;17.616;2022-09-09T17:16:26;14.20;99.40
56771;DHT22;42641;59.794;17.616;2022-09-09T17:18:56;14.10;99.70
56771;DHT22;42641;59.794;17.616;2022-09-09T17:21:26;14.10;99.90
56771;DHT22;42641;59.794;17.616;2022-09-09T17:23:53;14.00;99.90
56771;DHT22;42641;59.794;17.616;2022-09-09T17:26:23;13.90;99.90
56771;DHT22;42641;59.794;17.616;2022-09-09T17:28:52;13.90;99.90
56771;DHT22;42641;59.794;17.616;2022-09-09T17:31:19;13.70;99.90
56771;DHT22;42641;59.794;17.616;2022-09-09T17:33:47;13.60;99.90
56771;DHT22;42641;59.794;17.616;2022-09-09T17:36:16;13.60;99.90
56771;DHT22;42641;59.794;17.616;2022-09-09T17:38:43;13.60;99.90
56771;DHT22;42641;59.794;17.616;2022-09-09T17:41:13;13.60;99.90
56771;DHT22;42641;59.794;17.616;2022-09-09T17:43:40;13.50;99.90